Time;durP1;ratioP1;P1;durP2;ratioP2;P2;SDS_P1;SDS_P2;PMS_P1;PMS_P2;Temp;Humidity;BMP_temperature;BMP_pressure;BME280_temperature;BME280_humidity;BME280_pressure;Samples;Min_cycle;Max_cycle;Signal;HPM_P1;HPM_P2
2022/10/16 00:01:39;;;;;;;8.70;4.47;;;19.50;99.90;;;;;;5039092;28;20247;-71
2022/10/16 00:04:05;;;;;;;7.90;4.03;;;19.50;99.90;;;;;;5025958;28;20184;-71
2022/10/16 00:06:32;;;;;;;13.93;3.73;;;19.40;99.90;;;;;;5020357;28;20181;-71
2022/10/16 00:08:59;;;;;;;9.80;3.63;;;19.30;99.90;;;;;;5021757;28;20227;-71
2022/10/16 00:11:33;;;;;;;6.77;3.53;;;19.30;99.90;;;;;;5044175;28;20189;-71
2022/10/16 00:14:02;;;;;;;10.90;3.57;;;19.20;99.90;;;;;;5023600;28;20251;-71
2022/10/16 00:16:30;;;;;;;9.47;3.67;;;19.20;99.90;;;;;;5036749;28;20243;-71
2022/10/16 00:18:56;;;;;;;11.20;3.57;;;19.10;99.90;;;;;;5032266;28;20185;-71
2022/10/16 00:21:27;;;;;;;8.33;2.93;;;19.20;99.90;;;;;;5043614;28;20188;-71
2022/10/16 00:24:01;;;;;;;8.50;3.00;;;19.10;99.90;;;;;;5028178;28;20196;-71
2022/10/16 00:26:30;;;;;;;8.93;3.03;;;19.10;99.90;;;;;;5035690;28;20196;-71
2022/10/16 00:29:00;;;;;;;7.43;3.40;;;19.10;99.90;;;;;;5024672;28;20203;-71
2022/10/16 00:31:27;;;;;;;11.67;3.23;;;19.10;99.90;;;;;;5032768;28;20294;-71
2022/10/16 00:33:56;;;;;;;6.87;3.00;;;19.20;99.90;;;;;;5026820;28;20550;-71
2022/10/16 00:36:25;;;;;;;7.37;3.20;;;19.10;99.90;;;;;;5020593;28;20192;-71
2022/10/16 00:38:54;;;;;;;6.97;2.93;;;19.20;99.90;;;;;;5023636;28;20176;-71
2022/10/16 00:41:24;;;;;;;6.13;2.73;;;19.20;99.90;;;;;;5027399;28;20184;-71
2022/10/16 00:43:59;;;;;;;13.13;2.97;;;19.20;99.90;;;;;;5034563;28;20200;-71
2022/10/16 00:46:31;;;;;;;11.27;2.90;;;19.20;99.90;;;;;;5027484;28;20194;-71
2022/10/16 00:49:03;;;;;;;4.80;2.40;;;19.20;99.90;;;;;;5034462;28;20206;-71
2022/10/16 00:51:42;;;;;;;16.67;2.50;;;19.20;99.90;;;;;;5030954;28;20250;-71
2022/10/16 00:54:19;;;;;;;8.47;2.57;;;19.20;99.90;;;;;;5010177;28;20191;-71
2022/10/16 00:56:47;;;;;;;8.87;2.37;;;19.20;99.90;;;;;;5011595;28;20185;-71
2022/10/16 00:59:25;;;;;;;11.17;2.53;;;19.20;99.90;;;;;;5019106;28;20184;-71
2022/10/16 01:01:53;;;;;;;8.30;2.60;;;19.20;99.90;;;;;;5012656;28;20648;-71
2022/10/16 01:04:21;;;;;;;9.40;2.47;;;19.20;99.90;;;;;;5041660;28;20253;-71
2022/10/16 01:07:27;;;;;;;8.73;2.27;;;19.20;99.90;;;;;;5015507;28;20202;-71
2022/10/16 01:10:08;;;;;;;9.27;2.43;;;19.20;99.90;;;;;;5024003;28;20192;-71
2022/10/16 01:12:53;;;;;;;10.70;2.77;;;19.20;99.90;;;;;;5023979;28;20181;-71
2022/10/16 01:15:30;;;;;;;7.53;2.37;;;19.20;99.90;;;;;;5022415;28;20212;-71
2022/10/16 01:18:31;;;;;;;11.10;3.13;;;19.20;99.90;;;;;;5031574;28;20203;-71
2022/10/16 01:21:08;;;;;;;6.57;2.23;;;19.20;99.90;;;;;;5022023;28;20756;-71
2022/10/16 01:24:03;;;;;;;10.17;2.53;;;19.30;99.90;;;;;;5029328;28;20234;-71
2022/10/16 01:27:06;;;;;;;8.17;2.60;;;19.30;99.90;;;;;;5043265;28;20196;-71
2022/10/16 01:30:00;;;;;;;13.63;2.97;;;19.30;99.90;;;;;;5021885;28;20183;-71
2022/10/16 01:32:48;;;;;;;12.33;2.70;;;19.30;99.90;;;;;;5003230;28;20200;-71
2022/10/16 01:35:21;;;;;;;11.80;2.50;;;19.30;99.90;;;;;;5011774;28;20266;-71
2022/10/16 01:38:17;;;;;;;14.63;2.77;;;19.30;99.90;;;;;;5023922;28;20179;-71
2022/10/16 01:40:52;;;;;;;12.43;2.83;;;19.40;99.90;;;;;;5016779;28;20507;-71
2022/10/16 01:43:26;;;;;;;36.50;3.83;;;19.40;99.90;;;;;;5038041;28;20207;-71
2022/10/16 01:45:54;;;;;;;24.47;4.20;;;19.40;99.90;;;;;;5019111;28;22258;-71
2022/10/16 01:48:23;;;;;;;57.23;8.33;;;19.40;99.90;;;;;;5006935;28;20188;-69
2022/10/16 01:51:04;;;;;;;34.10;7.07;;;19.20;99.90;;;;;;5034446;28;20546;-69
2022/10/16 01:53:32;;;;;;;17.60;4.70;;;18.90;99.90;;;;;;5013630;28;20196;-70
2022/10/16 01:56:02;;;;;;;15.07;3.90;;;18.60;99.90;;;;;;5020496;28;20650;-70
2022/10/16 01:58:34;;;;;;;16.43;4.33;;;18.40;99.90;;;;;;5023323;28;20282;-70
2022/10/16 02:01:04;;;;;;;18.83;4.67;;;18.30;99.90;;;;;;5027372;28;20188;-70
2022/10/16 02:03:34;;;;;;;19.10;4.83;;;18.20;99.90;;;;;;5037190;28;20219;-70
2022/10/16 02:06:00;;;;;;;16.67;4.87;;;18.20;99.90;;;;;;5019295;28;20261;-70
2022/10/16 02:08:30;;;;;;;24.70;5.17;;;18.10;99.90;;;;;;5026979;28;20193;-70
2022/10/16 02:11:01;;;;;;;18.80;4.83;;;18.10;99.90;;;;;;5022593;28;20192;-70
2022/10/16 02:13:49;;;;;;;15.07;4.27;;;18.10;99.90;;;;;;5021358;28;20193;-72
2022/10/16 02:16:16;;;;;;;13.57;3.87;;;18.00;99.90;;;;;;5028106;28;20200;-72
2022/10/16 02:18:43;;;;;;;18.97;4.03;;;18.00;99.90;;;;;;5041574;28;20271;-70
2022/10/16 02:21:22;;;;;;;16.93;4.47;;;18.10;99.90;;;;;;5007587;28;20257;-73
2022/10/16 02:24:25;;;;;;;19.17;3.97;;;18.10;99.90;;;;;;5026259;28;20194;-73
2022/10/16 02:27:17;;;;;;;10.40;3.33;;;18.10;99.90;;;;;;5011388;28;20594;-72
2022/10/16 02:29:53;;;;;;;13.00;3.60;;;18.00;99.90;;;;;;5036486;28;20206;-70
2022/10/16 02:32:30;;;;;;;21.73;4.73;;;18.00;99.90;;;;;;5038654;28;20283;-72
2022/10/16 02:35:00;;;;;;;19.00;4.40;;;18.00;99.90;;;;;;5023227;28;20183;-71
2022/10/16 02:37:28;;;;;;;12.30;3.70;;;17.90;99.90;;;;;;5040615;28;20173;-72
2022/10/16 02:39:57;;;;;;;14.33;3.70;;;17.80;99.90;;;;;;5009992;28;20689;-72
2022/10/16 02:42:40;;;;;;;15.63;3.70;;;17.70;99.90;;;;;;5026935;28;20196;-72
2022/10/16 02:45:09;;;;;;;22.27;3.70;;;17.60;99.90;;;;;;5010476;28;20215;-72
2022/10/16 02:47:36;;;;;;;20.90;4.60;;;17.60;99.90;;;;;;5033685;28;20185;-73
2022/10/16 02:50:03;;;;;;;18.60;4.03;;;17.60;99.90;;;;;;5045961;28;20587;-73
2022/10/16 02:52:29;;;;;;;18.20;4.80;;;17.60;99.90;;;;;;5028566;28;20197;-73
2022/10/16 02:54:55;;;;;;;19.07;4.30;;;17.50;99.90;;;;;;5030072;28;20207;-70
2022/10/16 02:57:22;;;;;;;18.17;4.13;;;17.50;99.90;;;;;;5030058;28;20196;-71
2022/10/16 02:59:48;;;;;;;14.90;4.77;;;17.50;99.90;;;;;;5021922;28;20262;-71
2022/10/16 03:02:14;;;;;;;15.90;4.40;;;17.50;99.90;;;;;;5049635;28;20195;-72
2022/10/16 03:04:41;;;;;;;18.63;4.53;;;17.50;99.90;;;;;;5008953;28;20245;-71
2022/10/16 03:07:07;;;;;;;17.97;4.30;;;17.50;99.90;;;;;;5046690;28;20251;-71
2022/10/16 03:09:33;;;;;;;19.97;4.60;;;17.50;99.90;;;;;;5052132;28;20954;-71
2022/10/16 03:12:01;;;;;;;19.23;4.73;;;17.50;99.90;;;;;;5036494;28;20192;-71
2022/10/16 03:14:27;;;;;;;15.00;4.53;;;17.60;99.90;;;;;;5021352;28;20208;-70
2022/10/16 03:16:54;;;;;;;17.20;4.87;;;17.70;99.90;;;;;;5040983;28;20188;-70
2022/10/16 03:19:20;;;;;;;20.73;4.70;;;17.70;99.90;;;;;;5024392;28;20188;-70
2022/10/16 03:21:47;;;;;;;14.70;4.00;;;17.70;99.90;;;;;;5021314;28;20199;-71
2022/10/16 03:24:13;;;;;;;12.97;4.57;;;17.60;99.90;;;;;;5044839;28;20280;-71
2022/10/16 03:26:39;;;;;;;17.90;5.07;;;17.60;99.90;;;;;;5023526;28;20572;-71
2022/10/16 03:29:06;;;;;;;19.27;4.40;;;17.60;99.90;;;;;;5023091;28;20200;-71
2022/10/16 03:31:32;;;;;;;14.60;4.77;;;17.60;99.90;;;;;;5028795;28;20185;-71
2022/10/16 03:33:59;;;;;;;15.70;4.30;;;17.60;99.90;;;;;;5052424;28;20593;-70
2022/10/16 03:36:25;;;;;;;13.27;4.90;;;17.60;99.90;;;;;;5022930;28;20189;-71
2022/10/16 03:38:52;;;;;;;18.60;4.23;;;17.60;99.90;;;;;;5031653;28;20184;-71
2022/10/16 03:41:18;;;;;;;16.73;4.60;;;17.60;99.90;;;;;;5051811;28;20210;-71
2022/10/16 03:43:45;;;;;;;25.33;5.27;;;17.60;99.90;;;;;;5027464;28;20204;-71
2022/10/16 03:46:11;;;;;;;15.57;4.57;;;17.50;99.90;;;;;;5023743;28;20254;-71
2022/10/16 03:48:39;;;;;;;14.10;4.60;;;17.50;99.90;;;;;;5047607;28;20192;-71
2022/10/16 03:51:06;;;;;;;13.90;5.10;;;17.50;99.90;;;;;;5033362;28;20674;-71
2022/10/16 03:53:32;;;;;;;13.07;4.60;;;17.50;99.90;;;;;;5029441;28;20788;-71
2022/10/16 03:55:59;;;;;;;18.97;5.07;;;17.50;99.90;;;;;;5013446;28;20196;-71
2022/10/16 03:58:26;;;;;;;18.47;4.20;;;17.50;99.90;;;;;;5035134;28;20622;-73
2022/10/16 04:00:52;;;;;;;15.97;4.33;;;17.50;99.90;;;;;;5036531;28;20189;-73
2022/10/16 04:03:18;;;;;;;14.67;4.33;;;17.50;99.90;;;;;;5021618;28;20650;-73
2022/10/16 04:05:45;;;;;;;18.10;4.63;;;17.50;99.90;;;;;;5041705;28;20221;-73
2022/10/16 04:08:11;;;;;;;14.33;4.67;;;17.40;99.90;;;;;;5011783;28;20184;-73
2022/10/16 04:10:37;;;;;;;15.80;4.63;;;17.40;99.90;;;;;;5016313;28;20321;-70
2022/10/16 04:13:04;;;;;;;12.93;3.70;;;17.30;99.90;;;;;;5023987;28;20191;-71
2022/10/16 04:15:30;;;;;;;12.40;4.13;;;17.40;99.90;;;;;;5042776;28;20219;-73
2022/10/16 04:17:56;;;;;;;16.70;4.17;;;17.40;99.90;;;;;;5029749;28;20192;-73
2022/10/16 04:20:26;;;;;;;12.43;4.40;;;17.40;99.90;;;;;;5027433;28;20203;-73
2022/10/16 04:22:53;;;;;;;12.40;4.30;;;17.40;99.90;;;;;;5040917;28;20679;-71
2022/10/16 04:25:19;;;;;;;18.07;4.53;;;17.30;99.90;;;;;;5039594;28;20291;-71
2022/10/16 04:27:45;;;;;;;14.97;4.27;;;17.30;99.90;;;;;;5043768;28;20184;-71
2022/10/16 04:30:12;;;;;;;15.00;4.43;;;17.30;99.90;;;;;;5030295;28;20261;-71
2022/10/16 04:32:40;;;;;;;11.83;4.17;;;17.30;99.90;;;;;;5029182;28;20666;-71
2022/10/16 04:35:07;;;;;;;19.50;4.80;;;17.30;99.90;;;;;;5031244;28;20268;-70
2022/10/16 04:37:34;;;;;;;17.73;5.23;;;17.40;99.90;;;;;;5022800;28;20338;-71
2022/10/16 04:40:00;;;;;;;21.53;4.60;;;17.40;99.90;;;;;;5021107;28;20199;-71
2022/10/16 04:42:27;;;;;;;18.07;4.80;;;17.40;99.90;;;;;;5034805;28;20210;-71
2022/10/16 04:44:53;;;;;;;15.20;4.40;;;17.40;99.90;;;;;;5031214;28;20222;-70
2022/10/16 04:47:19;;;;;;;21.47;5.33;;;17.40;99.90;;;;;;5025561;28;20196;-69
2022/10/16 04:49:45;;;;;;;28.27;5.73;;;17.40;99.90;;;;;;5027078;28;20207;-70
2022/10/16 04:52:13;;;;;;;19.10;5.80;;;17.40;99.90;;;;;;5024964;28;20180;-70
2022/10/16 04:54:39;;;;;;;18.43;5.60;;;17.30;99.90;;;;;;5030383;28;20188;-69
2022/10/16 04:57:05;;;;;;;25.20;6.10;;;17.30;99.90;;;;;;5040540;28;20546;-69
2022/10/16 04:59:32;;;;;;;19.90;5.30;;;17.20;99.90;;;;;;5022077;28;20223;-69
2022/10/16 05:01:58;;;;;;;15.70;4.83;;;17.20;99.90;;;;;;5034483;28;20192;-70
2022/10/16 05:04:24;;;;;;;20.80;5.10;;;17.10;99.90;;;;;;5041149;28;20188;-70
2022/10/16 05:06:50;;;;;;;16.37;5.13;;;16.90;99.90;;;;;;5041111;28;20181;-69
2022/10/16 05:09:16;;;;;;;21.70;5.47;;;16.90;99.90;;;;;;5042446;28;20195;-71
2022/10/16 05:11:43;;;;;;;16.70;4.80;;;16.90;99.90;;;;;;5010147;28;20176;-71
2022/10/16 05:14:10;;;;;;;18.27;6.10;;;16.90;99.90;;;;;;5021791;28;20185;-71
2022/10/16 05:16:36;;;;;;;27.50;6.47;;;16.80;99.90;;;;;;5051742;28;20218;-71
2022/10/16 05:19:03;;;;;;;21.53;6.90;;;16.90;99.90;;;;;;5042150;28;20584;-69
2022/10/16 05:21:29;;;;;;;15.20;5.33;;;16.80;99.90;;;;;;5024392;28;20238;-71
2022/10/16 05:23:56;;;;;;;18.93;4.40;;;16.50;99.90;;;;;;5026442;28;21913;-69
2022/10/16 05:26:23;;;;;;;21.20;4.53;;;16.30;99.90;;;;;;5021428;28;20809;-68
2022/10/16 05:28:50;;;;;;;19.23;5.03;;;16.10;99.90;;;;;;5016820;28;20192;-69
2022/10/16 05:31:17;;;;;;;13.20;3.60;;;16.00;99.90;;;;;;5034871;28;20204;-69
2022/10/16 05:33:44;;;;;;;10.83;3.27;;;15.90;99.90;;;;;;5022117;28;20184;-70
2022/10/16 05:36:18;;;;;;;10.27;2.80;;;15.90;99.90;;;;;;5044977;28;20190;-71
2022/10/16 05:38:44;;;;;;;8.37;2.40;;;15.80;99.90;;;;;;5047881;28;20187;-71
2022/10/16 05:41:10;;;;;;;5.50;1.97;;;15.80;99.90;;;;;;5019316;28;20245;-71
2022/10/16 05:43:37;;;;;;;7.40;1.93;;;15.80;99.90;;;;;;5029401;28;20251;-71
2022/10/16 05:46:06;;;;;;;5.30;1.60;;;15.80;99.90;;;;;;5032334;28;20684;-71
2022/10/16 05:48:33;;;;;;;6.57;1.77;;;15.60;99.90;;;;;;5023977;28;20199;-71
2022/10/16 05:51:17;;;;;;;5.33;2.17;;;15.70;99.90;;;;;;5026563;28;20638;-71
2022/10/16 05:53:44;;;;;;;5.17;1.50;;;15.80;99.90;;;;;;5024684;28;20188;-70
2022/10/16 05:56:12;;;;;;;4.13;1.80;;;15.70;99.90;;;;;;5045853;28;20849;-69
2022/10/16 05:58:44;;;;;;;2.33;1.20;;;15.80;99.90;;;;;;5030247;28;20789;-70
2022/10/16 06:01:16;;;;;;;4.37;1.60;;;15.80;99.90;;;;;;5020015;28;20193;-71
2022/10/16 06:03:44;;;;;;;8.63;1.90;;;15.70;99.90;;;;;;5037125;28;20200;-71
2022/10/16 06:06:24;;;;;;;5.03;1.60;;;15.70;99.90;;;;;;5008382;28;20256;-72
2022/10/16 06:08:50;;;;;;;8.73;1.87;;;15.70;99.90;;;;;;5032076;28;20184;-72
2022/10/16 06:11:24;;;;;;;5.10;1.43;;;15.60;99.90;;;;;;5013936;28;20219;-71
2022/10/16 06:13:57;;;;;;;7.13;1.60;;;15.70;99.90;;;;;;5023540;28;20761;-71
2022/10/16 06:16:27;;;;;;;5.43;1.57;;;15.70;99.90;;;;;;5026224;28;20189;-71
2022/10/16 06:18:55;;;;;;;6.77;1.67;;;15.80;99.90;;;;;;5026337;28;20196;-71
2022/10/16 06:21:26;;;;;;;5.53;1.70;;;15.70;99.90;;;;;;5033690;28;20195;-70
2022/10/16 06:23:54;;;;;;;3.13;1.60;;;15.50;99.90;;;;;;5025886;28;20183;-70
2022/10/16 06:26:23;;;;;;;5.90;1.50;;;15.40;99.90;;;;;;5029358;28;20273;-71
2022/10/16 06:28:54;;;;;;;6.53;1.97;;;15.50;99.90;;;;;;5035069;28;20176;-71
2022/10/16 06:31:23;;;;;;;7.20;1.73;;;15.30;99.90;;;;;;5035765;28;20255;-72
2022/10/16 06:33:52;;;;;;;5.97;1.70;;;15.40;99.90;;;;;;5030142;28;20209;-70
2022/10/16 06:36:19;;;;;;;5.00;1.60;;;15.50;99.90;;;;;;5025888;28;20212;-69
2022/10/16 06:38:45;;;;;;;6.00;2.07;;;15.50;99.90;;;;;;5017089;28;20198;-69
2022/10/16 06:41:15;;;;;;;6.53;1.70;;;15.40;99.90;;;;;;5033886;28;20893;-71
2022/10/16 06:43:44;;;;;;;6.00;1.60;;;15.40;99.90;;;;;;5025382;28;20196;-71
2022/10/16 06:46:16;;;;;;;15.57;1.87;;;15.50;99.90;;;;;;5028973;28;20210;-71
2022/10/16 06:48:42;;;;;;;9.80;1.70;;;15.50;99.90;;;;;;5030131;28;20203;-72
2022/10/16 06:51:17;;;;;;;7.90;2.03;;;15.60;99.90;;;;;;5029762;28;20185;-72
2022/10/16 06:53:50;;;;;;;7.87;2.10;;;15.50;99.90;;;;;;5030028;28;20195;-72
2022/10/16 06:56:26;;;;;;;8.30;2.20;;;15.60;99.90;;;;;;5031143;28;20202;-72
2022/10/16 06:58:54;;;;;;;6.87;1.73;;;15.50;99.90;;;;;;5023307;28;20650;-72
2022/10/16 07:01:24;;;;;;;9.13;2.47;;;15.70;99.90;;;;;;5023381;28;20200;-72
2022/10/16 07:03:51;;;;;;;6.13;2.20;;;15.70;99.90;;;;;;5018445;28;20188;-72
2022/10/16 07:06:21;;;;;;;7.30;2.33;;;15.70;99.90;;;;;;5023710;28;20212;-72
2022/10/16 07:08:48;;;;;;;4.00;1.70;;;15.90;99.90;;;;;;5051872;28;20183;-72
2022/10/16 07:11:18;;;;;;;5.23;1.87;;;16.00;99.90;;;;;;5049892;28;20190;-72
2022/10/16 07:13:47;;;;;;;7.63;1.73;;;16.00;99.90;;;;;;5019427;28;20200;-72
2022/10/16 07:16:20;;;;;;;10.23;1.87;;;16.00;99.90;;;;;;5028562;28;20224;-72
2022/10/16 07:18:49;;;;;;;4.70;1.83;;;16.00;99.90;;;;;;5024682;28;20269;-72
2022/10/16 07:21:22;;;;;;;3.03;1.53;;;16.00;99.90;;;;;;5026810;28;20223;-72
2022/10/16 07:24:02;;;;;;;3.23;1.20;;;16.00;99.90;;;;;;5037387;28;20188;-72
2022/10/16 07:26:30;;;;;;;4.60;1.60;;;16.00;99.90;;;;;;5018566;28;20669;-72
2022/10/16 07:29:00;;;;;;;10.50;2.40;;;16.00;99.90;;;;;;5017506;28;20199;-72
2022/10/16 07:31:28;;;;;;;8.07;2.83;;;16.00;99.90;;;;;;5023605;28;20196;-72
2022/10/16 07:33:57;;;;;;;11.33;2.57;;;16.10;99.90;;;;;;5022629;28;20180;-72
2022/10/16 07:36:24;;;;;;;8.60;2.77;;;16.10;99.90;;;;;;5020082;28;20538;-72
2022/10/16 07:38:51;;;;;;;7.53;2.57;;;16.10;99.90;;;;;;5022708;28;20662;-72
2022/10/16 07:41:23;;;;;;;13.60;3.07;;;16.00;99.90;;;;;;5021538;28;20205;-72
2022/10/16 07:43:54;;;;;;;10.90;2.67;;;16.00;99.90;;;;;;5038539;28;20192;-72
2022/10/16 07:46:25;;;;;;;8.37;2.57;;;16.00;99.90;;;;;;5022891;28;20918;-72
2022/10/16 07:48:53;;;;;;;7.47;2.13;;;16.10;99.90;;;;;;5021138;28;20191;-72
2022/10/16 07:51:22;;;;;;;3.97;1.40;;;16.10;99.90;;;;;;5005205;28;20188;-72
2022/10/16 07:53:51;;;;;;;7.40;1.50;;;16.00;99.90;;;;;;5026128;28;20192;-72
2022/10/16 07:56:19;;;;;;;3.90;1.37;;;16.00;99.90;;;;;;5014163;28;20306;-72
2022/10/16 07:58:49;;;;;;;5.57;1.30;;;16.00;99.90;;;;;;5034823;28;20212;-72
2022/10/16 08:01:19;;;;;;;4.37;1.40;;;16.00;99.90;;;;;;5023324;28;20851;-71
2022/10/16 08:03:51;;;;;;;2.63;1.20;;;16.00;99.90;;;;;;5004690;28;20189;-70
2022/10/16 08:06:19;;;;;;;3.23;1.30;;;15.90;99.90;;;;;;5004455;28;20216;-70
2022/10/16 08:08:51;;;;;;;3.90;1.20;;;15.80;99.90;;;;;;5037003;28;20191;-70
2022/10/16 08:11:18;;;;;;;5.87;1.50;;;15.80;99.90;;;;;;5019560;28;20185;-69
2022/10/16 08:13:45;;;;;;;1.90;1.00;;;15.70;99.90;;;;;;5025263;28;20610;-71
2022/10/16 08:16:11;;;;;;;4.97;1.37;;;15.70;99.90;;;;;;5020535;28;20191;-70
2022/10/16 08:18:40;;;;;;;2.90;1.20;;;15.70;99.90;;;;;;5013727;28;20458;-69
2022/10/16 08:21:12;;;;;;;5.73;1.47;;;15.60;99.90;;;;;;5021028;28;20725;-70
2022/10/16 08:23:39;;;;;;;2.67;1.20;;;15.60;99.90;;;;;;5037796;28;20198;-69
2022/10/16 08:26:10;;;;;;;3.53;1.27;;;15.60;99.90;;;;;;5036984;28;20673;-69
2022/10/16 08:28:38;;;;;;;3.40;1.20;;;15.50;99.90;;;;;;5024024;28;20185;-69
2022/10/16 08:31:13;;;;;;;5.27;1.30;;;15.60;99.90;;;;;;5020607;28;20829;-69
2022/10/16 08:33:46;;;;;;;4.77;1.30;;;15.50;99.90;;;;;;5029712;28;20230;-69
2022/10/16 08:36:13;;;;;;;6.33;1.33;;;15.40;99.90;;;;;;5045419;28;20183;-70
2022/10/16 08:38:41;;;;;;;5.13;1.17;;;15.30;99.90;;;;;;5020648;28;20597;-69
2022/10/16 08:41:35;;;;;;;2.45;1.02;;;15.40;99.90;;;;;;5014895;28;20455;-69
2022/10/16 08:45:06;;;;;;;4.65;1.40;;;15.30;99.90;;;;;;5019878;28;20422;-69
2022/10/16 08:47:54;;;;;;;4.17;1.03;;;15.40;99.90;;;;;;5026044;28;20649;-70
2022/10/16 08:50:31;;;;;;;6.10;1.30;;;15.40;99.90;;;;;;5026955;28;20561;-69
2022/10/16 08:52:59;;;;;;;5.27;1.30;;;15.40;99.90;;;;;;5022276;28;20191;-70
2022/10/16 08:55:39;;;;;;;5.53;1.20;;;15.40;99.90;;;;;;5037104;28;20183;-69
2022/10/16 08:58:26;;;;;;;2.87;1.10;;;15.40;99.90;;;;;;5021383;28;20195;-69
2022/10/16 09:01:13;;;;;;;3.63;1.35;;;15.40;99.90;;;;;;5035348;28;20428;-69
2022/10/16 09:03:46;;;;;;;6.10;1.07;;;15.40;99.90;;;;;;5022802;28;20223;-70
2022/10/16 09:06:34;;;;;;;4.03;0.90;;;15.50;99.90;;;;;;5018122;28;20299;-70
2022/10/16 09:09:47;;;;;;;3.40;1.00;;;15.50;99.90;;;;;;5018411;28;20242;-70
2022/10/16 09:12:52;;;;;;;2.93;0.80;;;15.60;99.90;;;;;;5015977;28;20195;-70
2022/10/16 09:15:39;;;;;;;2.50;0.90;;;15.70;99.90;;;;;;5032779;28;20227;-70
2022/10/16 09:18:17;;;;;;;2.73;1.20;;;15.70;99.90;;;;;;5013814;28;20210;-72
2022/10/16 09:21:11;;;;;;;5.27;1.10;;;15.80;99.90;;;;;;5019175;28;20277;-72
2022/10/16 09:23:39;;;;;;;2.30;1.00;;;15.80;99.90;;;;;;5020377;28;20184;-71
2022/10/16 09:26:12;;;;;;;3.40;1.10;;;15.80;99.90;;;;;;5018676;28;20208;-72
2022/10/16 09:28:43;;;;;;;1.10;0.90;;;15.90;99.90;;;;;;5022351;28;20705;-71
2022/10/16 09:31:20;;;;;;;3.77;1.00;;;15.90;99.90;;;;;;5009240;28;20192;-72
2022/10/16 09:33:58;;;;;;;8.30;1.07;;;16.00;99.90;;;;;;5020307;28;20188;-72
2022/10/16 09:36:29;;;;;;;4.50;0.80;;;16.00;99.90;;;;;;5023727;28;20213;-72
2022/10/16 09:39:09;;;;;;;4.73;1.00;;;16.00;99.90;;;;;;5018642;28;20290;-72
2022/10/16 09:41:41;;;;;;;5.53;0.80;;;16.00;99.90;;;;;;5024688;28;20223;-72
2022/10/16 09:44:30;;;;;;;2.33;0.90;;;16.00;99.90;;;;;;5019662;28;20280;-71
2022/10/16 09:47:28;;;;;;;2.77;0.80;;;16.10;99.90;;;;;;5010944;28;20191;-72
2022/10/16 09:50:20;;;;;;;5.47;1.10;;;16.20;99.90;;;;;;5016317;28;20291;-71
2022/10/16 09:52:50;;;;;;;2.73;0.90;;;16.30;99.90;;;;;;5023335;28;20197;-72
2022/10/16 09:55:18;;;;;;;3.40;0.93;;;16.50;99.90;;;;;;5020689;28;20737;-71
2022/10/16 09:57:53;;;;;;;2.57;0.83;;;16.60;99.90;;;;;;5024497;28;20192;-73
2022/10/16 10:00:23;;;;;;;4.20;1.00;;;16.80;99.90;;;;;;5036470;28;20215;-72
2022/10/16 10:02:54;;;;;;;5.13;0.80;;;16.90;99.90;;;;;;5039181;28;20188;-71
2022/10/16 10:05:28;;;;;;;2.10;0.80;;;17.10;99.90;;;;;;5033874;28;20247;-72
2022/10/16 10:08:05;;;;;;;2.67;0.90;;;17.20;99.90;;;;;;5040763;28;20274;-72
2022/10/16 10:10:43;;;;;;;3.13;0.83;;;17.20;99.90;;;;;;5018863;28;20816;-72
2022/10/16 10:13:24;;;;;;;3.40;0.90;;;17.40;99.90;;;;;;5014054;28;20693;-71
2022/10/16 10:15:52;;;;;;;2.13;0.80;;;17.50;99.90;;;;;;5027416;28;20195;-71
2022/10/16 10:18:23;;;;;;;4.93;0.60;;;17.70;99.90;;;;;;5039091;28;20193;-71
2022/10/16 10:21:02;;;;;;;2.50;0.93;;;17.90;99.90;;;;;;5019956;28;21045;-72
2022/10/16 10:23:30;;;;;;;3.13;0.83;;;18.10;99.90;;;;;;5027657;28;20660;-72
2022/10/16 10:26:20;;;;;;;1.57;0.70;;;18.30;99.90;;;;;;5024211;28;20223;-72
2022/10/16 10:29:35;;;;;;;1.93;0.70;;;19.10;99.90;;;;;;5022146;28;20219;-72
2022/10/16 10:32:40;;;;;;;2.83;0.90;;;19.70;99.90;;;;;;4987318;28;20649;-71
2022/10/16 10:35:29;;;;;;;3.33;0.77;;;20.00;99.90;;;;;;5015095;28;20291;-69
2022/10/16 10:39:03;;;;;;;6.83;1.00;;;20.20;99.90;;;;;;5015225;28;20197;-70
2022/10/16 10:42:09;;;;;;;2.63;0.80;;;20.50;99.90;;;;;;4998264;28;20208;-71
2022/10/16 10:45:07;;;;;;;6.72;1.00;;;20.60;99.90;;;;;;5017888;28;20668;-70
2022/10/16 10:48:20;;;;;;;3.10;0.68;;;20.70;99.90;;;;;;5019876;28;20184;-70
2022/10/16 10:50:57;;;;;;;3.80;0.85;;;20.60;99.90;;;;;;4965420;28;21075;-70
2022/10/16 10:53:38;;;;;;;2.50;0.70;;;20.20;99.90;;;;;;5023384;28;20886;-70
2022/10/16 10:56:26;;;;;;;2.57;0.97;;;19.90;99.90;;;;;;5022282;28;20250;-72
2022/10/16 10:59:47;;;;;;;4.07;0.90;;;19.80;99.90;;;;;;5022548;28;20196;-72
2022/10/16 11:02:53;;;;;;;4.60;0.90;;;19.90;99.90;;;;;;5012700;28;20196;-71
2022/10/16 11:05:46;;;;;;;3.20;0.80;;;19.90;99.90;;;;;;4965614;28;20306;-72
2022/10/16 11:08:36;;;;;;;2.73;0.87;;;19.70;99.90;;;;;;5022624;28;20199;-70
2022/10/16 11:11:31;;;;;;;0.83;0.40;;;19.70;99.90;;;;;;5015636;28;20265;-72
2022/10/16 11:14:10;;;;;;;4.57;0.80;;;19.80;99.90;;;;;;5038901;28;20208;-72
2022/10/16 11:16:56;;;;;;;1.73;0.83;;;19.70;99.90;;;;;;5016671;28;20195;-72
2022/10/16 11:19:49;;;;;;;1.03;0.67;;;19.60;99.90;;;;;;5021509;28;20645;-72
2022/10/16 11:22:42;;;;;;;1.17;0.50;;;19.50;99.90;;;;;;5023219;28;20210;-72
2022/10/16 11:25:30;;;;;;;1.07;0.70;;;19.40;99.90;;;;;;5019119;28;20507;-72
2022/10/16 11:28:02;;;;;;;2.50;0.80;;;19.40;99.90;;;;;;5017828;28;20266;-72
2022/10/16 11:30:50;;;;;;;1.77;0.60;;;19.50;99.90;;;;;;5021802;28;20258;-72
2022/10/16 11:33:31;;;;;;;2.57;0.60;;;19.40;99.90;;;;;;5018498;28;20671;-72
2022/10/16 11:36:01;;;;;;;2.70;0.60;;;19.40;99.90;;;;;;5023982;28;20650;-72
2022/10/16 11:39:17;;;;;;;4.90;0.93;;;19.40;99.90;;;;;;5037765;28;20428;-72
2022/10/16 11:42:10;;;;;;;4.90;1.00;;;19.40;99.90;;;;;;5025455;28;20176;-72
2022/10/16 11:45:24;;;;;;;2.67;1.00;;;19.40;99.90;;;;;;5031720;28;20322;-72
2022/10/16 11:48:23;;;;;;;3.23;1.07;;;19.40;99.90;;;;;;5045345;28;20210;-72
2022/10/16 11:51:17;;;;;;;2.00;1.13;;;19.40;99.90;;;;;;5020059;28;20180;-72
2022/10/16 11:54:07;;;;;;;2.10;1.00;;;19.40;99.90;;;;;;5019391;28;20196;-72
2022/10/16 11:56:40;;;;;;;4.60;1.00;;;19.40;99.90;;;;;;4999904;28;20193;-72
2022/10/16 11:59:30;;;;;;;6.43;1.30;;;19.50;99.90;;;;;;5019867;28;20196;-72
2022/10/16 12:02:44;;;;;;;3.73;1.00;;;19.40;99.90;;;;;;5025585;28;20184;-72
2022/10/16 12:05:52;;;;;;;3.13;1.27;;;19.50;99.90;;;;;;5001889;28;20293;-72
2022/10/16 12:08:22;;;;;;;6.10;1.43;;;19.50;99.90;;;;;;5002925;28;20246;-72
2022/10/16 12:10:49;;;;;;;3.30;1.50;;;19.50;99.90;;;;;;5015243;28;20693;-72
2022/10/16 12:13:38;;;;;;;4.37;1.37;;;19.50;99.90;;;;;;5014384;28;20177;-72
2022/10/16 12:16:24;;;;;;;5.10;1.50;;;19.60;99.90;;;;;;5013282;28;20199;-72
2022/10/16 12:19:29;;;;;;;4.50;1.40;;;19.80;99.90;;;;;;4999907;28;20192;-73
2022/10/16 12:22:03;;;;;;;6.10;1.50;;;19.90;99.90;;;;;;5017239;28;20199;-72
2022/10/16 12:24:43;;;;;;;4.93;1.50;;;19.90;99.90;;;;;;5015105;28;20197;-72
2022/10/16 12:27:29;;;;;;;4.80;1.17;;;19.90;99.90;;;;;;5034046;28;20259;-72
2022/10/16 12:30:06;;;;;;;2.80;1.10;;;19.90;99.90;;;;;;5031300;28;20662;-73
2022/10/16 12:32:37;;;;;;;3.90;1.27;;;19.90;99.90;;;;;;5021247;28;20196;-72
2022/10/16 12:35:18;;;;;;;2.50;1.20;;;19.90;99.90;;;;;;5045603;28;20286;-72
2022/10/16 12:37:47;;;;;;;4.80;1.30;;;19.80;99.90;;;;;;5036267;28;20234;-72
2022/10/16 12:40:28;;;;;;;3.33;1.30;;;19.80;99.90;;;;;;5016439;28;21125;-73
2022/10/16 12:42:54;;;;;;;4.37;1.50;;;19.70;99.90;;;;;;5035345;28;20200;-73
2022/10/16 12:45:29;;;;;;;3.90;1.73;;;19.80;99.90;;;;;;5019895;28;20276;-73
2022/10/16 12:47:56;;;;;;;4.30;1.73;;;20.00;99.90;;;;;;5019146;28;20271;-72
2022/10/16 12:50:38;;;;;;;7.20;2.17;;;20.30;99.90;;;;;;5019095;28;20207;-72
2022/10/16 12:53:26;;;;;;;4.17;1.87;;;20.40;99.90;;;;;;5034705;28;20863;-72
2022/10/16 12:56:28;;;;;;;6.63;2.00;;;20.30;99.90;;;;;;5017973;28;20185;-72
2022/10/16 12:59:26;;;;;;;5.27;2.10;;;20.30;99.90;;;;;;5021332;28;20779;-72
2022/10/16 13:02:19;;;;;;;10.10;2.10;;;20.30;99.90;;;;;;5013200;28;20550;-72
2022/10/16 13:05:28;;;;;;;6.67;2.27;;;20.30;99.90;;;;;;5035357;28;20196;-72
2022/10/16 13:08:31;;;;;;;4.63;2.40;;;20.30;99.90;;;;;;5020829;28;20542;-72
2022/10/16 13:11:39;;;;;;;13.57;2.30;;;20.20;99.90;;;;;;5016996;28;20502;-72
2022/10/16 13:14:35;;;;;;;7.37;2.47;;;20.50;99.90;;;;;;5018543;28;20642;-72
2022/10/16 13:17:17;;;;;;;7.97;3.07;;;20.50;99.90;;;;;;5016755;28;20577;-72
2022/10/16 13:20:31;;;;;;;9.63;2.60;;;20.50;99.90;;;;;;5024027;28;20262;-72
2022/10/16 13:23:36;;;;;;;9.37;3.07;;;20.50;99.90;;;;;;5028202;28;20207;-72
2022/10/16 13:26:24;;;;;;;8.67;2.60;;;20.60;99.90;;;;;;5036324;28;21933;-72
2022/10/16 13:28:50;;;;;;;6.83;2.00;;;20.50;99.90;;;;;;5019822;28;20319;-72